Time;durP1;ratioP1;P1;durP2;ratioP2;P2;SDS_P1;SDS_P2;PMS_P1;PMS_P2;Temp;Humidity;BMP_temperature;BMP_pressure;BME280_temperature;BME280_humidity;BME280_pressure;Samples;Min_cycle;Max_cycle;Signal;HPM_P1;HPM_P2
2023/11/01 00:01:37;;;;;;;0.40;0.40;;;8.70;99.90;;;;;;5105022;28;20209;-65
2023/11/01 00:04:05;;;;;;;1.50;0.63;;;8.70;99.90;;;;;;5105403;28;20296;-65
2023/11/01 00:06:32;;;;;;;1.10;0.63;;;8.80;99.90;;;;;;5105652;28;20214;-65
2023/11/01 00:08:59;;;;;;;2.00;0.90;;;8.90;99.90;;;;;;5105470;28;20732;-65
2023/11/01 00:11:26;;;;;;;1.90;1.00;;;8.90;99.90;;;;;;5105383;28;20886;-65
2023/11/01 00:13:53;;;;;;;0.90;0.77;;;8.90;99.90;;;;;;5105566;28;20702;-65
2023/11/01 00:16:20;;;;;;;1.83;1.37;;;8.90;99.90;;;;;;5095045;28;20310;-66
2023/11/01 00:18:47;;;;;;;2.20;1.53;;;8.90;99.90;;;;;;5097420;28;20207;-66
2023/11/01 00:21:15;;;;;;;1.73;1.57;;;8.90;99.90;;;;;;5105269;28;20317;-66
2023/11/01 00:23:42;;;;;;;4.00;1.40;;;9.00;99.90;;;;;;5090193;27;20218;-66
2023/11/01 00:26:08;;;;;;;3.07;1.60;;;9.00;99.90;;;;;;5089482;28;20567;-65
2023/11/01 00:28:35;;;;;;;1.63;1.53;;;9.00;99.90;;;;;;5089703;28;20646;-65
2023/11/01 00:31:02;;;;;;;1.90;1.00;;;9.00;99.90;;;;;;5089567;28;20301;-65
2023/11/01 00:33:29;;;;;;;0.63;0.63;;;9.00;99.90;;;;;;5093154;28;20264;-65
2023/11/01 00:35:56;;;;;;;1.83;1.20;;;9.00;99.90;;;;;;5103454;28;20666;-66
2023/11/01 00:38:24;;;;;;;6.37;1.40;;;8.90;99.90;;;;;;5094696;28;20298;-66
2023/11/01 00:40:51;;;;;;;1.60;1.00;;;8.80;99.90;;;;;;5088717;28;20207;-65
2023/11/01 00:43:18;;;;;;;1.67;0.63;;;8.60;99.90;;;;;;5088295;28;20704;-65
2023/11/01 00:45:45;;;;;;;3.43;0.60;;;8.60;99.90;;;;;;5088787;28;20252;-65
2023/11/01 00:48:12;;;;;;;1.27;0.30;;;8.50;99.90;;;;;;5088212;28;20713;-65
2023/11/01 00:50:39;;;;;;;2.83;0.57;;;8.60;99.90;;;;;;5094490;28;20206;-65
2023/11/01 00:53:06;;;;;;;2.10;1.10;;;8.60;99.90;;;;;;5108696;28;20920;-65
2023/11/01 00:55:34;;;;;;;3.73;1.30;;;8.60;99.90;;;;;;5108527;28;20278;-65
2023/11/01 00:58:01;;;;;;;2.23;1.50;;;8.60;99.90;;;;;;5108807;28;20228;-66
2023/11/01 01:00:28;;;;;;;1.40;0.90;;;8.60;99.90;;;;;;5108943;28;20249;-66
2023/11/01 01:02:54;;;;;;;2.33;1.20;;;8.60;99.90;;;;;;5108649;28;20222;-66
2023/11/01 01:05:22;;;;;;;2.50;1.33;;;8.60;99.90;;;;;;5109077;28;20300;-66
2023/11/01 01:07:49;;;;;;;2.37;1.13;;;8.60;99.90;;;;;;5109106;28;20202;-66
2023/11/01 01:10:16;;;;;;;5.43;1.80;;;8.60;99.90;;;;;;5108938;28;20209;-66
2023/11/01 01:12:44;;;;;;;2.20;1.60;;;8.70;99.90;;;;;;5101366;28;20293;-66
2023/11/01 01:15:11;;;;;;;2.07;1.00;;;8.70;99.90;;;;;;5108382;28;20289;-66
2023/11/01 01:17:38;;;;;;;2.03;0.80;;;8.60;99.90;;;;;;5108510;28;20326;-66
2023/11/01 01:20:06;;;;;;;1.40;0.93;;;8.50;99.90;;;;;;5089630;28;20234;-66
2023/11/01 01:22:32;;;;;;;0.50;0.50;;;8.60;99.90;;;;;;5087698;28;20329;-66
2023/11/01 01:24:59;;;;;;;1.03;0.80;;;8.60;99.90;;;;;;5087943;28;20732;-66
2023/11/01 01:27:27;;;;;;;3.17;1.27;;;8.60;99.90;;;;;;5090676;28;20830;-66
2023/11/01 01:29:55;;;;;;;2.97;0.60;;;8.60;99.90;;;;;;5087425;28;20222;-66
2023/11/01 01:32:22;;;;;;;5.70;0.97;;;8.60;99.90;;;;;;5089524;28;20298;-65
2023/11/01 02:00:22;;;;;;;0.80;0.80;;;9.10;99.90;;;;;;5083033;28;20754;-65
2023/11/01 02:02:52;;;;;;;1.23;0.70;;;9.10;99.90;;;;;;5103860;28;20744;-65
2023/11/01 02:05:20;;;;;;;2.33;1.00;;;9.10;99.90;;;;;;5107418;28;20206;-65
2023/11/01 02:07:47;;;;;;;2.00;0.90;;;9.00;99.90;;;;;;5106594;28;20202;-65
2023/11/01 02:10:14;;;;;;;2.03;0.80;;;9.00;99.90;;;;;;5086802;28;20609;-65
2023/11/01 02:12:41;;;;;;;1.80;0.90;;;9.10;99.90;;;;;;5086753;28;20680;-65
2023/11/01 02:15:09;;;;;;;0.77;0.77;;;9.10;99.90;;;;;;5087113;28;20650;-65
2023/11/01 02:17:37;;;;;;;1.13;0.80;;;9.10;99.90;;;;;;5086321;28;20647;-66
2023/11/01 02:20:05;;;;;;;1.77;0.93;;;9.10;99.90;;;;;;5086792;28;20237;-66
2023/11/01 02:22:32;;;;;;;2.00;0.90;;;9.10;99.90;;;;;;5086146;28;20701;-66
2023/11/01 02:25:00;;;;;;;0.80;0.80;;;9.10;99.90;;;;;;5086493;28;20210;-66
2023/11/01 02:27:28;;;;;;;1.07;0.70;;;9.10;99.90;;;;;;5090331;28;20297;-66
2023/11/01 02:29:55;;;;;;;0.47;0.47;;;9.10;99.90;;;;;;5092999;28;20293;-66
2023/11/01 02:32:25;;;;;;;5.27;0.80;;;9.20;99.90;;;;;;5096096;28;20213;-66
2023/11/01 02:34:52;;;;;;;3.30;0.70;;;9.20;99.90;;;;;;5104902;28;21007;-66
2023/11/01 02:37:19;;;;;;;0.80;0.60;;;9.30;99.90;;;;;;5106727;28;20503;-66
2023/11/01 02:39:46;;;;;;;1.47;0.93;;;9.30;99.90;;;;;;5106388;28;20226;-66
2023/11/01 02:42:14;;;;;;;1.37;0.83;;;9.30;99.90;;;;;;5106385;28;20301;-66
2023/11/01 02:44:41;;;;;;;1.17;0.93;;;9.30;99.90;;;;;;5106199;28;20331;-66
2023/11/01 02:47:08;;;;;;;0.70;0.70;;;9.30;99.90;;;;;;5105817;28;20216;-65
2023/11/01 02:49:35;;;;;;;1.57;0.70;;;9.30;99.90;;;;;;5106254;28;20297;-65
2023/11/01 02:52:02;;;;;;;1.33;0.77;;;9.30;99.90;;;;;;5106330;28;20229;-66
2023/11/01 02:54:29;;;;;;;0.73;0.63;;;9.30;99.90;;;;;;5098356;28;20363;-66
2023/11/01 02:56:58;;;;;;;1.00;0.53;;;9.30;99.90;;;;;;5086013;28;20816;-65
2023/11/01 02:59:26;;;;;;;1.70;0.60;;;9.30;99.90;;;;;;5105264;28;20674;-65
2023/11/01 03:01:53;;;;;;;3.03;0.70;;;9.30;99.90;;;;;;5106516;28;20304;-65
2023/11/01 03:04:20;;;;;;;0.57;0.47;;;9.30;99.90;;;;;;5100906;28;20234;-65
2023/11/01 03:06:47;;;;;;;1.77;1.10;;;9.30;99.90;;;;;;5102227;28;20657;-65
2023/11/01 03:09:14;;;;;;;1.00;0.67;;;9.30;99.90;;;;;;5085402;28;20677;-66
2023/11/01 03:11:41;;;;;;;2.70;0.77;;;9.30;99.90;;;;;;5085505;28;20242;-66
2023/11/01 03:14:08;;;;;;;2.20;0.60;;;9.30;99.90;;;;;;5085696;28;20210;-66
2023/11/01 03:16:37;;;;;;;1.57;0.70;;;9.30;99.90;;;;;;5099864;28;20203;-66
2023/11/01 03:19:04;;;;;;;1.47;0.60;;;9.30;99.90;;;;;;5105919;28;20654;-66
2023/11/01 03:21:31;;;;;;;2.73;0.80;;;9.30;99.90;;;;;;5106078;28;20298;-65
2023/11/01 03:23:58;;;;;;;2.10;0.70;;;9.20;99.90;;;;;;5105521;28;20321;-65
2023/11/01 03:26:25;;;;;;;2.63;0.80;;;9.30;99.90;;;;;;5094484;28;20293;-67
2023/11/01 03:28:52;;;;;;;2.53;0.80;;;9.30;99.90;;;;;;5085401;28;20302;-65
2023/11/01 03:31:19;;;;;;;0.97;0.50;;;9.30;99.90;;;;;;5102789;28;20206;-65
2023/11/01 03:33:48;;;;;;;2.37;0.70;;;9.20;99.90;;;;;;5092849;28;20393;-65
2023/11/01 03:36:15;;;;;;;0.67;0.60;;;9.20;99.90;;;;;;5103601;28;20745;-65
2023/11/01 03:38:42;;;;;;;3.67;0.90;;;9.20;99.90;;;;;;5104019;28;20294;-65
2023/11/01 03:41:09;;;;;;;3.40;0.67;;;9.20;99.90;;;;;;5104327;28;20216;-66
2023/11/01 03:43:36;;;;;;;4.47;0.80;;;9.20;99.90;;;;;;5103813;28;20226;-65
2023/11/01 03:46:03;;;;;;;4.67;0.73;;;9.20;99.90;;;;;;5102862;28;20229;-65
2023/11/01 03:48:30;;;;;;;0.97;0.40;;;9.20;99.90;;;;;;5103528;28;20229;-65
2023/11/01 03:50:58;;;;;;;3.10;0.80;;;9.20;99.90;;;;;;5103322;28;20288;-65
2023/11/01 03:53:25;;;;;;;1.03;0.40;;;9.20;99.90;;;;;;5102286;28;20308;-65
2023/11/01 03:55:52;;;;;;;2.97;0.87;;;9.20;99.90;;;;;;5083002;28;20558;-66
2023/11/01 03:58:19;;;;;;;2.50;0.50;;;9.30;99.90;;;;;;5082871;28;20673;-65
2023/11/01 04:00:46;;;;;;;0.50;0.50;;;9.30;99.90;;;;;;5086279;28;20206;-65
2023/11/01 04:03:13;;;;;;;1.13;0.70;;;9.30;99.90;;;;;;5083625;28;20859;-65
2023/11/01 04:05:40;;;;;;;3.47;0.90;;;9.30;99.90;;;;;;5084045;28;20202;-66
2023/11/01 04:08:08;;;;;;;3.07;0.80;;;9.30;99.90;;;;;;5092991;28;20206;-65
2023/11/01 04:10:35;;;;;;;1.40;0.70;;;9.30;99.90;;;;;;5103157;28;20305;-66
2023/11/01 04:13:03;;;;;;;4.03;0.63;;;9.30;99.90;;;;;;5101713;28;20573;-66
2023/11/01 04:15:31;;;;;;;0.60;0.50;;;9.30;99.90;;;;;;5098291;28;20607;-66
2023/11/01 04:17:58;;;;;;;3.23;0.50;;;9.30;99.90;;;;;;5104761;28;20316;-66
2023/11/01 04:20:25;;;;;;;0.70;0.70;;;9.30;99.90;;;;;;5104416;28;20202;-66
2023/11/01 04:22:52;;;;;;;4.90;0.80;;;9.30;99.90;;;;;;5104571;28;20201;-66
2023/11/01 04:25:20;;;;;;;0.70;0.70;;;9.30;99.90;;;;;;5104338;28;20213;-66
2023/11/01 04:27:48;;;;;;;0.97;0.63;;;9.30;99.90;;;;;;5087027;28;20218;-65
2023/11/01 04:30:15;;;;;;;1.00;0.67;;;9.30;99.90;;;;;;5084118;28;20214;-65
2023/11/01 04:32:43;;;;;;;1.90;0.80;;;9.30;99.90;;;;;;5084593;28;20206;-65
2023/11/01 04:35:10;;;;;;;1.30;0.50;;;9.30;99.90;;;;;;5104418;28;20221;-65
2023/11/01 04:37:38;;;;;;;4.13;0.80;;;9.20;99.90;;;;;;5104572;28;20584;-65
2023/11/01 04:40:06;;;;;;;2.80;0.73;;;9.20;99.90;;;;;;5104879;28;20221;-65
2023/11/01 04:42:34;;;;;;;2.13;0.90;;;9.20;99.90;;;;;;5093905;28;20207;-65
2023/11/01 04:45:01;;;;;;;0.63;0.63;;;9.20;99.90;;;;;;5084497;28;20234;-65
2023/11/01 04:47:28;;;;;;;1.20;0.40;;;9.20;99.90;;;;;;5084104;28;20345;-65
2023/11/01 04:49:56;;;;;;;1.23;0.73;;;9.20;99.90;;;;;;5084022;28;20239;-65
2023/11/01 04:52:23;;;;;;;1.43;0.73;;;9.20;99.90;;;;;;5084671;28;20211;-66
2023/11/01 04:54:50;;;;;;;0.70;0.60;;;9.20;99.90;;;;;;5084318;28;20567;-65
2023/11/01 04:57:17;;;;;;;2.00;0.77;;;9.20;99.90;;;;;;5092962;28;20312;-65
2023/11/01 04:59:45;;;;;;;1.13;0.70;;;9.20;99.90;;;;;;5100084;28;20230;-66
2023/11/01 05:02:12;;;;;;;2.23;0.87;;;9.10;99.90;;;;;;5084662;28;20206;-65
2023/11/01 05:04:39;;;;;;;0.50;0.50;;;9.10;99.90;;;;;;5104249;28;20798;-65
2023/11/01 05:07:06;;;;;;;1.13;0.80;;;9.10;99.90;;;;;;5108085;28;20214;-66
2023/11/01 05:09:33;;;;;;;0.73;0.70;;;9.10;99.90;;;;;;5108099;28;20301;-65
2023/11/01 05:12:00;;;;;;;1.63;0.77;;;9.10;99.90;;;;;;5107961;27;20677;-65
2023/11/01 05:14:26;;;;;;;2.60;0.80;;;9.10;99.90;;;;;;5108110;28;20210;-66
2023/11/01 05:16:56;;;;;;;3.03;0.60;;;9.10;99.90;;;;;;5108248;28;20205;-65
2023/11/01 05:19:23;;;;;;;0.63;0.60;;;9.10;99.90;;;;;;5107695;28;20285;-65
2023/11/01 05:21:50;;;;;;;2.13;0.77;;;9.10;99.90;;;;;;5108597;28;20233;-65
2023/11/01 05:24:17;;;;;;;2.80;0.70;;;9.10;99.90;;;;;;5108084;28;20230;-64
2023/11/01 05:26:44;;;;;;;2.47;0.53;;;9.10;99.90;;;;;;5107729;27;20271;-64
2023/11/01 05:29:11;;;;;;;0.80;0.80;;;9.10;99.90;;;;;;5108467;28;20245;-64
2023/11/01 05:31:38;;;;;;;1.30;0.50;;;9.10;99.90;;;;;;5108105;28;20210;-64
2023/11/01 05:34:07;;;;;;;1.50;0.70;;;9.10;99.90;;;;;;5107477;28;20308;-64
2023/11/01 05:36:34;;;;;;;1.50;0.90;;;9.10;99.90;;;;;;5107753;27;20294;-64
2023/11/01 05:39:05;;;;;;;1.13;0.70;;;9.10;99.90;;;;;;5095377;28;20203;-64
2023/11/01 05:41:34;;;;;;;1.47;0.60;;;9.20;99.90;;;;;;5086919;28;20195;-64
2023/11/01 05:44:01;;;;;;;2.00;0.63;;;9.10;99.90;;;;;;5086952;28;20326;-64
2023/11/01 05:46:28;;;;;;;0.60;0.60;;;9.10;99.90;;;;;;5086911;28;20297;-64
2023/11/01 05:48:55;;;;;;;1.10;0.53;;;9.20;99.90;;;;;;5086892;28;20207;-64
2023/11/01 05:51:23;;;;;;;0.80;0.67;;;9.20;99.90;;;;;;5086715;28;20806;-64
2023/11/01 05:53:50;;;;;;;1.53;0.63;;;9.20;99.90;;;;;;5098020;28;20244;-64
2023/11/01 05:56:17;;;;;;;0.90;0.63;;;9.20;99.90;;;;;;5100889;28;20246;-64
2023/11/01 05:58:46;;;;;;;1.93;0.40;;;9.20;99.90;;;;;;5086554;28;20314;-64
2023/11/01 06:01:13;;;;;;;2.00;0.60;;;9.20;99.90;;;;;;5086968;28;20281;-66
2023/11/01 06:03:39;;;;;;;1.13;0.40;;;9.20;99.90;;;;;;5094801;28;20218;-64
2023/11/01 06:06:08;;;;;;;0.83;0.40;;;9.10;99.90;;;;;;5106849;28;20297;-64
2023/11/01 06:08:36;;;;;;;1.43;0.80;;;9.20;99.90;;;;;;5106929;28;20202;-66
2023/11/01 06:11:03;;;;;;;5.00;0.97;;;9.20;99.90;;;;;;5107086;28;20216;-64
2023/11/01 06:13:30;;;;;;;1.27;0.73;;;9.20;99.90;;;;;;5103112;27;20206;-65
2023/11/01 06:15:59;;;;;;;0.77;0.47;;;9.20;99.90;;;;;;5106249;28;20944;-65
2023/11/01 06:18:26;;;;;;;2.13;0.70;;;9.10;99.90;;;;;;5102227;28;20217;-65
2023/11/01 06:20:53;;;;;;;2.20;0.90;;;9.20;99.90;;;;;;5086369;28;21002;-65
2023/11/01 06:23:19;;;;;;;3.07;1.13;;;9.20;99.90;;;;;;5086193;28;20294;-64
2023/11/01 06:25:48;;;;;;;3.27;0.90;;;9.20;99.90;;;;;;5086032;28;20234;-65
2023/11/01 06:28:15;;;;;;;1.90;0.80;;;9.20;99.90;;;;;;5086016;28;20210;-65
2023/11/01 06:30:42;;;;;;;2.37;0.67;;;9.20;99.90;;;;;;5086193;28;20217;-65
2023/11/01 06:33:09;;;;;;;2.20;0.80;;;9.20;99.90;;;;;;5090074;28;20613;-65
2023/11/01 06:35:37;;;;;;;4.27;0.80;;;9.20;99.90;;;;;;5106002;28;20978;-64
2023/11/01 06:38:04;;;;;;;5.50;0.90;;;9.20;99.90;;;;;;5106567;28;20545;-65
2023/11/01 06:40:31;;;;;;;2.30;0.70;;;9.30;99.90;;;;;;5106643;28;20220;-65
2023/11/01 06:42:59;;;;;;;0.70;0.70;;;9.30;99.90;;;;;;5098757;28;20213;-65
2023/11/01 06:45:26;;;;;;;3.13;0.80;;;9.30;99.90;;;;;;5085786;28;20238;-65
2023/11/01 06:47:53;;;;;;;0.97;0.80;;;9.30;99.90;;;;;;5086043;28;20217;-65
2023/11/01 06:50:20;;;;;;;1.07;0.77;;;9.30;99.90;;;;;;5099089;28;20217;-65
2023/11/01 06:52:47;;;;;;;2.03;0.70;;;9.30;99.90;;;;;;5097856;28;20294;-64
2023/11/01 06:55:16;;;;;;;1.30;0.77;;;9.30;99.90;;;;;;5086257;28;20301;-64
2023/11/01 06:57:42;;;;;;;2.43;0.83;;;9.30;99.90;;;;;;5085987;28;20212;-65
2023/11/01 07:00:13;;;;;;;1.17;0.87;;;9.40;99.90;;;;;;5085841;28;20682;-65
2023/11/01 07:02:39;;;;;;;1.63;0.80;;;9.30;99.90;;;;;;5086316;28;20198;-65
2023/11/01 07:05:07;;;;;;;1.07;0.83;;;9.40;99.90;;;;;;5106327;28;20230;-65
2023/11/01 07:07:34;;;;;;;1.13;0.77;;;9.40;99.90;;;;;;5106055;28;20293;-64
2023/11/01 07:10:01;;;;;;;4.50;0.77;;;9.40;99.90;;;;;;5106193;28;20214;-64
2023/11/01 07:12:28;;;;;;;1.77;0.93;;;9.40;99.90;;;;;;5106106;28;20210;-64
2023/11/01 07:14:55;;;;;;;0.80;0.80;;;9.40;99.90;;;;;;5105829;28;20236;-65
2023/11/01 07:17:26;;;;;;;0.63;0.63;;;9.40;99.90;;;;;;5105872;28;20560;-65
2023/11/01 07:19:54;;;;;;;3.87;1.03;;;9.40;99.90;;;;;;5105949;28;20194;-64
2023/11/01 07:22:21;;;;;;;0.97;0.97;;;9.40;99.90;;;;;;5105562;28;20673;-65
2023/11/01 07:24:48;;;;;;;1.30;1.10;;;9.40;99.90;;;;;;5105760;28;20230;-64
2023/11/01 07:27:15;;;;;;;2.83;1.00;;;9.40;99.90;;;;;;5105633;28;20296;-64
2023/11/01 07:29:42;;;;;;;3.97;0.93;;;9.50;99.90;;;;;;5105563;28;20645;-65
2023/11/01 07:32:09;;;;;;;2.23;1.00;;;9.50;99.90;;;;;;5105875;28;20668;-65
2023/11/01 07:34:37;;;;;;;0.90;0.83;;;9.40;99.90;;;;;;5105399;28;20214;-64
2023/11/01 07:37:04;;;;;;;2.53;1.20;;;9.50;99.90;;;;;;5105962;28;20206;-64
2023/11/01 07:39:30;;;;;;;3.50;0.80;;;9.50;99.90;;;;;;5095439;28;20250;-64
2023/11/01 07:41:57;;;;;;;2.70;1.33;;;9.60;99.90;;;;;;5085148;28;20639;-64
2023/11/01 07:44:27;;;;;;;1.17;1.07;;;9.70;99.90;;;;;;5085239;28;20226;-64
2023/11/01 07:46:54;;;;;;;1.57;1.13;;;9.80;99.90;;;;;;5101108;28;20302;-65
2023/11/01 07:49:21;;;;;;;2.30;1.00;;;9.90;99.90;;;;;;5105141;28;20314;-64
2023/11/01 07:51:49;;;;;;;2.40;1.27;;;10.00;99.90;;;;;;5105681;28;20232;-65
2023/11/01 07:54:16;;;;;;;1.53;1.30;;;10.10;99.90;;;;;;5105556;28;20206;-64
2023/11/01 07:56:43;;;;;;;2.20;1.40;;;10.20;99.90;;;;;;5105601;28;20289;-65
2023/11/01 07:59:10;;;;;;;1.63;1.00;;;10.30;99.90;;;;;;5105384;28;20344;-65
2023/11/01 08:01:37;;;;;;;2.17;1.20;;;10.40;99.90;;;;;;5105213;28;20241;-64
2023/11/01 08:04:04;;;;;;;1.10;1.00;;;10.50;99.90;;;;;;5104894;28;20214;-65
2023/11/01 08:06:31;;;;;;;0.97;0.97;;;10.60;99.90;;;;;;5105250;28;20234;-65
2023/11/01 08:09:00;;;;;;;2.20;1.40;;;10.60;99.90;;;;;;5105132;28;20197;-64
2023/11/01 08:11:27;;;;;;;2.37;1.30;;;10.70;99.90;;;;;;5105033;28;20205;-65
2023/11/01 08:13:54;;;;;;;2.60;1.20;;;10.80;99.90;;;;;;5105245;28;20322;-65
2023/11/01 08:16:20;;;;;;;1.23;1.13;;;10.90;99.90;;;;;;5104874;28;20300;-65
2023/11/01 08:18:47;;;;;;;3.43;2.93;;;11.00;99.90;;;;;;5104590;28;20214;-65
2023/11/01 08:21:14;;;;;;;5.40;3.63;;;11.00;99.90;;;;;;5105126;28;20308;-65
2023/11/01 08:23:41;;;;;;;3.77;1.97;;;11.10;99.90;;;;;;5105197;28;20202;-65
2023/11/01 08:26:15;;;;;;;1.90;1.30;;;11.20;99.90;;;;;;5101631;28;20226;-65
2023/11/01 08:28:42;;;;;;;2.90;1.23;;;11.30;99.90;;;;;;5104832;28;21077;-65
2023/11/01 08:31:09;;;;;;;1.27;1.00;;;11.30;99.90;;;;;;5105019;28;20212;-65
2023/11/01 08:33:36;;;;;;;1.77;1.20;;;11.40;99.90;;;;;;5104613;28;20210;-65
2023/11/01 08:36:02;;;;;;;3.17;1.67;;;11.50;99.90;;;;;;5104667;28;20305;-65
2023/11/01 08:38:29;;;;;;;2.93;1.30;;;11.50;99.90;;;;;;5106778;28;20300;-65
2023/11/01 08:40:56;;;;;;;4.10;1.63;;;11.50;99.90;;;;;;5108849;28;20297;-65
2023/11/01 08:43:24;;;;;;;3.03;1.30;;;11.70;99.90;;;;;;5108467;28;20309;-65
2023/11/01 08:45:51;;;;;;;2.37;1.30;;;11.70;99.90;;;;;;5108406;28;20324;-65
2023/11/01 08:48:18;;;;;;;1.90;1.20;;;11.80;99.90;;;;;;5108278;28;20768;-65
2023/11/01 08:50:45;;;;;;;1.83;1.50;;;11.80;99.90;;;;;;5108006;28;20216;-65
2023/11/01 08:53:12;;;;;;;1.27;1.17;;;11.90;99.90;;;;;;5108942;28;20301;-65
2023/11/01 08:55:39;;;;;;;2.03;1.20;;;11.90;99.90;;;;;;5108537;28;20206;-65
2023/11/01 08:58:06;;;;;;;1.90;1.00;;;12.00;99.90;;;;;;5108426;28;20677;-65
2023/11/01 09:00:34;;;;;;;3.43;1.30;;;12.10;99.90;;;;;;5107793;28;20244;-65
2023/11/01 09:03:01;;;;;;;2.00;1.43;;;12.10;99.90;;;;;;5090603;28;20209;-65
2023/11/01 09:05:28;;;;;;;5.13;1.20;;;12.20;99.90;;;;;;5107683;28;20238;-65
2023/11/01 09:07:55;;;;;;;3.27;1.90;;;12.30;99.90;;;;;;5097332;28;20209;-65
2023/11/01 09:10:22;;;;;;;3.27;1.53;;;12.40;99.90;;;;;;5087750;28;20207;-65
2023/11/01 09:12:48;;;;;;;2.03;1.80;;;12.40;99.90;;;;;;5087874;28;20242;-65
2023/11/01 09:15:15;;;;;;;2.30;2.00;;;12.50;99.90;;;;;;5087924;28;20321;-65
2023/11/01 09:17:44;;;;;;;2.50;1.27;;;12.60;99.90;;;;;;5087444;28;20321;-65
2023/11/01 09:20:11;;;;;;;2.37;1.50;;;12.70;99.90;;;;;;5087938;28;20209;-65
2023/11/01 09:22:38;;;;;;;3.20;1.70;;;12.80;99.90;;;;;;5087894;28;20301;-65
2023/11/01 09:25:06;;;;;;;1.33;1.30;;;12.80;99.90;;;;;;5087929;28;20227;-65
2023/11/01 09:27:33;;;;;;;2.47;1.33;;;12.90;99.90;;;;;;5087319;28;20203;-65
2023/11/01 09:29:59;;;;;;;3.20;1.67;;;13.00;99.90;;;;;;5087564;28;20302;-65
2023/11/01 09:32:26;;;;;;;1.50;1.40;;;13.10;99.90;;;;;;5100951;28;20206;-65
2023/11/01 09:34:55;;;;;;;1.10;1.10;;;13.20;99.90;;;;;;5107518;27;20730;-65
2023/11/01 09:37:22;;;;;;;2.47;1.30;;;13.30;99.90;;;;;;5107422;28;20321;-65
2023/11/01 09:39:50;;;;;;;3.60;1.40;;;13.30;99.90;;;;;;5107306;28;20210;-65
2023/11/01 09:42:21;;;;;;;2.40;1.70;;;13.40;99.90;;;;;;5107063;28;20309;-65
2023/11/01 09:44:49;;;;;;;1.60;1.20;;;13.50;99.90;;;;;;5107104;28;20318;-65
2023/11/01 09:47:18;;;;;;;2.13;1.30;;;13.50;99.90;;;;;;5107138;28;20213;-65
2023/11/01 09:49:45;;;;;;;2.63;1.40;;;13.60;99.90;;;;;;5105413;28;20209;-65
2023/11/01 09:52:13;;;;;;;2.77;1.50;;;13.70;99.90;;;;;;5107626;28;20293;-65
2023/11/01 09:54:40;;;;;;;1.47;1.30;;;13.80;99.90;;;;;;5107117;28;20210;-65
2023/11/01 09:57:10;;;;;;;1.90;1.70;;;13.90;99.90;;;;;;5107300;28;20632;-65
2023/11/01 09:59:38;;;;;;;2.27;1.47;;;13.90;99.90;;;;;;5106980;28;20313;-65
2023/11/01 10:02:08;;;;;;;3.33;1.30;;;14.00;99.90;;;;;;5107511;28;20302;-65
2023/11/01 10:04:35;;;;;;;2.30;1.50;;;14.00;99.90;;;;;;5092618;28;20307;-65
2023/11/01 10:07:02;;;;;;;1.73;1.50;;;14.10;99.90;;;;;;5086747;28;20345;-65
2023/11/01 10:09:30;;;;;;;1.67;1.43;;;14.20;99.90;;;;;;5086322;28;20336;-65
2023/11/01 10:11:58;;;;;;;2.80;1.40;;;14.30;99.90;;;;;;5086729;28;20207;-65
2023/11/01 10:14:29;;;;;;;1.87;1.13;;;14.20;99.90;;;;;;5086346;28;20305;-65
2023/11/01 10:16:57;;;;;;;2.00;1.30;;;14.20;99.90;;;;;;5086699;28;20301;-65
2023/11/01 10:19:24;;;;;;;3.07;1.43;;;14.00;99.90;;;;;;5086561;28;20213;-65
2023/11/01 10:21:51;;;;;;;1.83;1.47;;;13.90;99.90;;;;;;5086507;28;20238;-65
2023/11/01 10:24:18;;;;;;;4.07;1.67;;;13.90;99.90;;;;;;5086791;28;20207;-65
2023/11/01 10:26:46;;;;;;;3.00;1.30;;;13.80;99.90;;;;;;5086056;28;20227;-65
2023/11/01 10:29:13;;;;;;;2.10;1.40;;;13.80;99.90;;;;;;5086246;28;20297;-65
2023/11/01 10:31:40;;;;;;;1.37;1.30;;;13.80;99.90;;;;;;5086402;28;20543;-65
2023/11/01 10:34:14;;;;;;;2.60;1.40;;;13.90;99.90;;;;;;5088709;28;20265;-65
2023/11/01 10:36:51;;;;;;;1.67;1.20;;;14.00;99.90;;;;;;5106816;28;20249;-65
2023/11/01 10:39:18;;;;;;;3.60;1.20;;;14.10;99.90;;;;;;5086246;28;20194;-65
2023/11/01 10:41:49;;;;;;;2.03;1.20;;;14.20;99.90;;;;;;5086210;28;20206;-65
2023/11/01 10:44:17;;;;;;;5.23;1.40;;;14.20;99.90;;;;;;5086049;28;20231;-65
2023/11/01 10:46:44;;;;;;;5.17;1.53;;;14.30;99.90;;;;;;5086178;28;20631;-65
2023/11/01 10:49:12;;;;;;;3.03;1.57;;;14.50;99.90;;;;;;5085968;28;20310;-65
2023/11/01 10:51:40;;;;;;;2.57;1.50;;;14.60;99.90;;;;;;5086250;28;20207;-65
2023/11/01 10:54:08;;;;;;;3.00;1.40;;;14.80;99.90;;;;;;5094439;28;20289;-65
2023/11/01 10:56:35;;;;;;;7.00;1.43;;;14.90;99.90;;;;;;5106064;28;20915;-65
2023/11/01 10:59:12;;;;;;;1.70;1.20;;;15.10;99.90;;;;;;5105820;28;20615;-65
2023/11/01 11:01:42;;;;;;;4.30;1.37;;;15.20;99.90;;;;;;5105608;28;20198;-65
2023/11/01 11:04:21;;;;;;;2.27;1.30;;;15.40;99.90;;;;;;5105646;28;20214;-65
2023/11/01 11:06:56;;;;;;;5.67;1.43;;;15.60;99.90;;;;;;5105840;28;20222;-65
2023/11/01 11:09:25;;;;;;;2.30;1.10;;;15.70;99.90;;;;;;5105880;28;20281;-66
2023/11/01 11:12:14;;;;;;;2.37;1.40;;;15.80;99.90;;;;;;5106253;28;20206;-65
2023/11/01 11:14:43;;;;;;;2.87;1.60;;;16.00;99.90;;;;;;5105562;28;20750;-65
2023/11/01 11:17:13;;;;;;;1.43;0.93;;;16.10;99.90;;;;;;5106072;28;20208;-65
2023/11/01 11:20:09;;;;;;;2.07;0.97;;;16.10;99.90;;;;;;5105804;28;20206;-65
2023/11/01 11:23:11;;;;;;;2.90;1.10;;;16.20;99.90;;;;;;5106098;28;20194;-65
2023/11/01 11:25:59;;;;;;;3.40;1.37;;;16.40;99.90;;;;;;5105406;28;20237;-65
2023/11/01 11:28:46;;;;;;;4.30;1.27;;;16.30;99.90;;;;;;5081922;28;20246;-65
2023/11/01 11:31:20;;;;;;;1.63;1.27;;;16.10;99.90;;;;;;5085433;28;20207;-65
2023/11/01 11:34:13;;;;;;;1.17;1.00;;;16.00;99.90;;;;;;5094212;28;20202;-65
2023/11/01 11:37:12;;;;;;;1.37;1.00;;;15.90;99.90;;;;;;5105184;28;20206;-65
2023/11/01 11:40:00;;;;;;;1.80;1.07;;;15.80;99.90;;;;;;5105472;28;20218;-65
2023/11/01 11:42:49;;;;;;;1.27;0.90;;;15.80;99.90;;;;;;5105084;28;20538;-65
2023/11/01 11:45:30;;;;;;;1.53;0.77;;;15.90;99.90;;;;;;5105442;28;20297;-65
2023/11/01 11:47:58;;;;;;;2.20;1.00;;;16.00;99.90;;;;;;5105680;27;20660;-65
2023/11/01 11:50:25;;;;;;;1.87;1.00;;;16.10;99.90;;;;;;5096146;28;20242;-65
2023/11/01 11:52:52;;;;;;;1.47;1.30;;;16.10;99.90;;;;;;5085042;28;20210;-65
2023/11/01 11:55:40;;;;;;;1.37;1.10;;;16.10;99.90;;;;;;5084878;28;20977;-65
2023/11/01 11:58:08;;;;;;;1.83;1.00;;;16.00;99.90;;;;;;5085051;28;20271;-65
2023/11/01 12:00:34;;;;;;;3.33;0.83;;;15.80;99.90;;;;;;5084829;28;20238;-65
2023/11/01 12:03:03;;;;;;;0.93;0.77;;;15.60;99.90;;;;;;5084763;28;20210;-65
2023/11/01 12:05:34;;;;;;;1.20;0.70;;;15.50;99.90;;;;;;5084554;28;20225;-65
2023/11/01 12:08:01;;;;;;;4.10;0.97;;;15.30;99.90;;;;;;5084722;28;20195;-65
2023/11/01 12:10:29;;;;;;;3.83;0.77;;;15.20;99.90;;;;;;5084346;28;20220;-65
2023/11/01 12:12:57;;;;;;;1.80;1.00;;;15.10;99.90;;;;;;5097906;28;20202;-65
2023/11/01 12:15:24;;;;;;;1.53;1.00;;;15.00;99.90;;;;;;5105044;28;20206;-65
2023/11/01 12:17:52;;;;;;;1.20;0.53;;;15.00;99.90;;;;;;5104982;28;20206;-65
2023/11/01 12:20:32;;;;;;;0.70;0.70;;;15.00;99.90;;;;;;5098653;28;20298;-65
2023/11/01 12:23:06;;;;;;;1.07;0.87;;;15.00;99.90;;;;;;5084973;28;20240;-65
2023/11/01 12:25:33;;;;;;;1.70;0.80;;;15.00;99.90;;;;;;5084892;28;20195;-65
2023/11/01 12:28:00;;;;;;;1.43;0.80;;;14.90;99.90;;;;;;5098945;28;20301;-65
2023/11/01 12:30:27;;;;;;;2.93;1.17;;;15.00;99.90;;;;;;5104624;28;20300;-65
2023/11/01 12:32:54;;;;;;;1.40;1.10;;;14.90;99.90;;;;;;5105057;28;20259;-65
2023/11/01 12:35:21;;;;;;;1.63;1.07;;;14.90;99.90;;;;;;5105178;28;20210;-65
2023/11/01 12:37:49;;;;;;;1.30;1.00;;;15.00;99.90;;;;;;5105349;28;20297;-65
2023/11/01 12:40:16;;;;;;;1.10;0.97;;;15.00;99.90;;;;;;5105044;28;20210;-65
2023/11/01 12:42:45;;;;;;;0.87;0.87;;;15.00;99.90;;;;;;5105167;28;20312;-65
2023/11/01 12:45:13;;;;;;;0.90;0.83;;;14.90;99.90;;;;;;5104615;28;20675;-65
2023/11/01 12:47:41;;;;;;;1.87;1.00;;;14.90;99.90;;;;;;5104931;28;20329;-65
2023/11/01 12:50:09;;;;;;;1.80;0.70;;;14.90;99.90;;;;;;5104737;28;20556;-65
2023/11/01 12:52:36;;;;;;;3.20;1.17;;;14.90;99.90;;;;;;5104874;28;20986;-65
2023/11/01 12:55:08;;;;;;;0.70;0.50;;;14.90;99.90;;;;;;5105365;28;20210;-65
2023/11/01 12:57:36;;;;;;;0.77;0.60;;;14.90;99.90;;;;;;5105116;28;20190;-65
2023/11/01 13:00:03;;;;;;;1.77;1.13;;;14.80;99.90;;;;;;5104535;28;20686;-65
2023/11/01 13:02:31;;;;;;;2.47;0.90;;;14.80;99.90;;;;;;5104857;28;20625;-65
2023/11/01 13:04:58;;;;;;;1.47;0.90;;;14.70;99.90;;;;;;5104671;28;20213;-65
2023/11/01 13:07:25;;;;;;;0.70;0.70;;;14.70;99.90;;;;;;5104873;28;20233;-65
2023/11/01 13:09:52;;;;;;;2.60;1.03;;;14.70;99.90;;;;;;5104348;28;20210;-66
2023/11/01 13:12:20;;;;;;;1.23;0.80;;;14.70;99.90;;;;;;5104665;28;20717;-65
2023/11/01 13:14:47;;;;;;;1.73;0.83;;;14.70;99.90;;;;;;5104516;28;20241;-65
2023/11/01 13:17:14;;;;;;;0.77;0.73;;;14.70;99.90;;;;;;5092502;28;20246;-65
2023/11/01 13:19:41;;;;;;;1.13;0.87;;;14.70;99.90;;;;;;5083814;28;20215;-65
2023/11/01 13:22:08;;;;;;;0.73;0.60;;;14.60;99.90;;;;;;5084614;28;20214;-65
2023/11/01 13:24:35;;;;;;;2.90;0.77;;;14.60;99.90;;;;;;5103275;28;20198;-65